Latest Weather Observations for Minlaton Airport

IDS60801

Issued at 5:31 pm CST Monday 25 September 2017 (issued every 30 minutes, with the page automatically refreshed every 10 minutes)

About weather observations | Map of weather stations | Latest weather observations for SA | Other Formats
Station Details ID: 022031 Name: MINLATON AERO Lat: -34.75 Lon: 137.53 Height: 32.0 m
Data from the previous 72 hours. | See also: Recent months at Minlaton Airport
Date/Time
CST
Temp
°C
App
Temp
°C
Dew
Point
°C
Rel
Hum
%
Delta-T
°C
Wind Press
QNH
hPa
Press
MSL
hPa
Rain since
9am
mm
Dir  Spd
km/h
Gust
km/h
Spd
kts
Gust
kts
25/05:30pm 15.4 12.0 9.1 66 3.2 ESE 17 22 9 12 1013.9 1013.9 0.0
25/05:00pm 16.5 14.0 9.7 64 3.6 SW 13 17 7 9 1013.8 1013.8 0.0
25/04:30pm 16.4 13.4 9.3 63 3.7 SW 15 20 8 11 1013.6 1013.6 0.0
25/04:00pm 16.6 13.2 9.1 61 3.9 WSW 17 20 9 11 1013.7 1013.7 0.0
25/03:30pm 17.0 13.8 9.9 63 3.7 WSW 17 22 9 12 1013.7 1013.7 0.0
25/03:00pm 16.8 13.0 9.0 60 4.0 WSW 19 22 10 12 1013.7 1013.7 0.0
25/02:30pm 17.2 13.9 9.4 60 4.1 W 17 22 9 12 1013.9 1013.9 0.0
25/02:00pm 17.1 13.3 9.8 62 3.8 WNW 20 28 11 15 1014.1 1014.1 0.0
25/01:30pm 17.4 13.5 9.3 59 4.2 WNW 20 32 11 17 1014.4 1014.4 0.0
25/01:00pm 16.9 12.8 8.6 58 4.3 WNW 20 30 11 16 1014.4 1014.4 0.0
25/12:30pm 17.3 13.6 9.5 60 4.1 WNW 19 28 10 15 1014.5 1014.5 0.0
25/12:00pm 16.3 12.1 8.3 59 4.1 WNW 20 30 11 16 1014.4 1014.4 0.0
25/11:30am 16.4 13.2 8.4 59 4.1 W 15 22 8 12 1014.6 1014.6 0.0
25/11:00am 16.6 12.6 8.3 58 4.2 W 19 26 10 14 1014.4 1014.4 0.0
25/10:30am 16.5 13.1 9.2 62 3.8 W 17 22 9 12 1014.4 1014.4 0.0
25/10:00am 16.2 12.9 9.6 65 3.4 W 17 24 9 13 1014.2 1014.2 0.0
25/09:30am 15.8 12.6 9.9 68 3.1 WSW 17 24 9 13 1014.0 1014.0 0.0
25/09:00am 15.3 12.3 9.4 68 3.0 WSW 15 22 8 12 1013.9 1013.9 0.0
25/08:30am 14.6 11.6 9.4 71 2.7 WSW 15 20 8 11 1013.6 1013.6 0.0
25/08:00am 14.0 11.2 10.0 77 2.1 WSW 15 20 8 11 1013.3 1013.3 0.0
25/07:30am 11.7 11.2 9.3 85 1.2 NW 2 6 1 3 1012.9 1012.9 0.0
25/07:00am 9.1 8.5 7.2 88 0.9 CALM 0 0 0 0 1012.4 1012.4 0.0
25/06:30am 6.8 4.0 5.0 88 0.8 S 9 9 5 5 1011.5 1011.5 0.0
25/06:00am 6.8 2.7 4.6 86 1.0 S 15 17 8 9 1010.8 1010.8 0.0
25/05:30am 8.0 4.1 5.3 83 1.2 WSW 15 17 8 9 1010.5 1010.5 0.0
25/05:00am 8.8 5.7 5.5 80 1.5 WSW 11 13 6 7 1010.3 1010.3 0.0
25/04:30am 9.8 6.4 6.0 77 1.8 W 13 17 7 9 1010.3 1010.3 0.0
25/04:00am 11.3 7.2 6.4 72 2.3 W 17 20 9 11 1010.3 1010.3 0.0
25/03:30am 11.8 6.9 6.9 72 2.3 W 22 30 12 16 1010.1 1010.1 0.0
25/03:00am 11.6 7.2 7.5 76 2.0 W 20 30 11 16 1010.1 1010.1 0.0
25/02:30am 11.9 7.5 7.2 73 2.3 W 20 30 11 16 1010.2 1010.2 0.0
25/02:00am 11.7 6.8 6.8 72 2.3 W 22 30 12 16 1010.1 1010.1 0.0
25/01:30am 11.7 6.7 6.6 71 2.4 W 22 30 12 16 1009.9 1009.9 0.0
25/01:00am 12.0 5.9 6.5 69 2.6 W 28 39 15 21 1010.0 1010.0 0.0
25/12:30am 11.9 6.2 6.6 70 2.5 W 26 39 14 21 1010.3 1010.3 0.0
25/12:00am 12.1 6.4 6.8 70 2.5 W 26 33 14 18 1010.2 1010.2 0.0
 
Date/Time
CST
Temp
°C
App
Temp
°C
Dew
Point
°C
Rel
Hum
%
Delta-T
°C
Wind Press
QNH
hPa
Press
MSL
hPa
Rain since
9am
mm
Dir  Spd
km/h
Gust
km/h
Spd
kts
Gust
kts
24/11:30pm 11.8 6.9 7.1 73 2.3 W 22 32 12 17 1010.2 1010.2 0.0
24/11:00pm 12.2 6.6 7.3 72 2.4 W 26 35 14 19 1010.4 1010.4 0.0
24/10:30pm 11.9 6.6 6.8 71 2.4 W 24 33 13 18 1010.3 1010.3 0.0
24/10:00pm 12.0 6.6 6.5 69 2.6 WNW 24 35 13 19 1010.1 1010.1 0.0
24/09:30pm 12.3 6.5 6.1 66 2.9 W 26 35 14 19 1010.1 1010.1 0.0
24/09:00pm 12.8 5.9 6.4 65 3.1 W 32 41 17 22 1009.8 1009.8 0.0
24/08:30pm 12.6 6.5 6.6 67 2.9 W 28 41 15 22 1009.5 1009.5 0.0
24/08:00pm 13.0 5.9 5.7 61 3.4 W 32 43 17 23 1009.2 1009.2 0.0
24/07:30pm 13.0 7.1 7.5 69 2.7 WNW 28 41 15 22 1008.9 1008.9 0.0
24/07:00pm 13.0 6.9 6.8 66 3.0 W 28 39 15 21 1008.4 1008.4 0.0
24/06:30pm 13.3 7.7 8.6 73 2.4 W 28 39 15 21 1007.9 1007.9 0.0
24/06:00pm 13.8 7.7 8.4 70 2.7 W 30 39 16 21 1007.5 1007.5 0.0
24/05:30pm 14.4 8.6 7.9 65 3.2 W 28 37 15 20 1007.1 1007.1 0.0
24/05:00pm 15.1 8.4 7.4 60 3.8 W 32 44 17 24 1006.8 1006.8 0.0
24/04:30pm 16.0 9.3 8.2 60 4.0 W 33 44 18 24 1006.6 1006.6 0.0
24/04:00pm 16.1 9.1 8.3 60 4.0 W 35 46 19 25 1006.3 1006.3 0.0
24/03:30pm 16.6 9.4 7.8 56 4.5 W 35 46 19 25 1006.2 1006.2 0.0
24/03:00pm 16.9 9.6 7.3 53 4.8 W 35 50 19 27 1006.0 1006.0 0.0
24/02:30pm 17.8 10.8 8.6 55 4.8 W 35 46 19 25 1005.9 1005.9 0.0
24/02:05pm 17.9 10.8 7.9 52 5.1 W 35 54 19 29 1005.8 1005.8 0.0
24/02:00pm 17.0 8.5 6.8 51 5.1 W 41 54 22 29 1005.7 1005.7 0.0
24/01:30pm 17.2 9.1 7.0 51 5.1 W 39 54 21 29 1005.6 1005.6 0.0
24/01:00pm 17.7 10.4 8.8 56 4.6 W 37 48 20 26 1005.7 1005.7 0.0
24/12:30pm 17.0 9.3 8.7 58 4.3 W 39 50 21 27 1005.9 1005.9 0.0
24/12:00pm 16.6 9.1 8.1 57 4.3 WNW 37 44 20 24 1005.8 1005.8 0.0
24/11:30am 16.8 9.3 8.0 56 4.5 WNW 37 48 20 26 1005.8 1005.8 0.0
24/11:02am 16.0 8.9 9.4 65 3.4 W 37 56 20 30 1005.7 1005.7 0.0
24/11:00am 15.9 8.3 9.1 64 3.5 W 39 56 21 30 1005.7 1005.7 0.0
24/10:56am 16.3 9.0 8.8 61 3.8 WNW 37 56 20 30 1005.6 1005.6 0.0
24/10:30am 16.5 9.3 10.4 67 3.2 WNW 39 54 21 29 1005.6 1005.6 0.0
24/10:00am 15.1 8.4 9.7 70 2.8 NW 35 44 19 24 1005.5 1005.5 0.0
24/09:30am 14.6 7.8 9.2 70 2.8 NW 35 46 19 25 1005.3 1005.3 0.0
24/09:00am 15.2 7.8 9.8 70 2.8 NW 39 50 21 27 1005.1 1005.1 0.0
24/08:30am 14.6 8.5 9.6 72 2.6 NW 32 43 17 23 1004.8 1004.8 0.0
24/08:00am 14.6 7.1 7.9 64 3.3 WNW 37 52 20 28 1004.5 1004.5 0.0
24/07:30am 14.1 7.0 8.1 67 3.0 WNW 35 54 19 29 1004.3 1004.3 0.0
24/07:00am 13.2 6.2 8.5 73 2.3 WNW 35 48 19 26 1004.0 1004.0 0.0
24/06:30am 13.1 6.7 8.4 73 2.4 WNW 32 43 17 23 1003.7 1003.7 0.0
24/06:00am 12.8 5.7 8.1 73 2.3 WNW 35 46 19 25 1003.5 1003.5 0.0
24/05:30am 13.1 6.4 8.0 71 2.5 WNW 33 50 18 27 1003.3 1003.3 0.0
24/05:24am 13.1 6.5 8.4 73 2.3 W 33 52 18 28 1003.2 1003.2 0.0
24/05:00am 13.0 5.4 7.7 70 2.6 W 37 50 20 27 1002.9 1002.9 0.0
24/04:30am 13.2 5.4 8.3 72 2.5 WNW 39 57 21 31 1002.9 1002.9 0.0
24/04:25am 13.2 5.7 7.9 70 2.6 WNW 37 57 20 31 1002.9 1002.9 0.0
24/04:00am 13.3 7.5 9.4 77 2.0 WNW 30 41 16 22 1002.7 1002.7 0.0
24/03:30am 13.5 7.1 9.2 75 2.2 WNW 33 46 18 25 1002.7 1002.7 0.0
24/03:00am 13.2 6.3 8.9 75 2.2 WNW 35 46 19 25 1002.8 1002.8 0.0
24/02:34am 13.2 7.0 9.5 78 1.9 WNW 32 50 17 27 1003.0 1003.0 0.0
24/02:30am 13.2 6.4 9.3 77 2.0 WNW 35 50 19 27 1002.9 1002.9 0.0
24/02:00am 13.3 6.5 9.2 76 2.1 WNW 35 54 19 29 1003.2 1003.2 0.0
24/01:30am 13.2 6.9 8.9 75 2.2 WNW 32 50 17 27 1003.4 1003.4 0.0
24/01:00am 13.3 7.9 11.0 86 1.2 WNW 30 43 16 23 1003.6 1003.6 0.0
24/12:30am 13.3 8.0 11.4 88 1.0 NW 30 44 16 24 1003.6 1003.6 0.0
24/12:27am 13.3 8.4 11.4 88 1.0 NW 28 44 15 24 1003.7 1003.7 0.0
24/12:00am 13.0 9.6 11.1 88 1.0 WNW 20 26 11 14 1003.7 1003.7 0.0
 
Date/Time
CST
Temp
°C
App
Temp
°C
Dew
Point
°C
Rel
Hum
%
Delta-T
°C
Wind Press
QNH
hPa
Press
MSL
hPa
Rain since
9am
mm
Dir  Spd
km/h
Gust
km/h
Spd
kts
Gust
kts
23/11:30pm 13.9 9.0 11.4 85 1.3 WNW 28 39 15 21 1003.7 1003.7 0.0
23/11:00pm 13.9 7.6 10.9 82 1.6 WNW 35 50 19 27 1004.2 1004.2 0.0
23/10:30pm 13.8 8.4 10.8 82 1.6 NW 30 44 16 24 1004.2 1004.2 0.0
23/10:12pm 13.8 8.8 11.1 84 1.4 NW 28 46 15 25 1004.3 1004.3 0.0
23/10:00pm 13.8 9.2 11.0 83 1.5 NW 26 35 14 19 1004.2 1004.2 0.0
23/09:30pm 14.1 8.3 10.9 81 1.7 NW 32 43 17 23 1004.3 1004.3 0.0
23/09:00pm 13.8 9.6 11.0 83 1.5 NW 24 33 13 18 1004.4 1004.4 0.0
23/08:30pm 13.8 9.9 10.8 82 1.6 NW 22 32 12 17 1004.5 1004.5 0.0
23/08:00pm 14.0 9.3 10.6 80 1.8 NW 26 37 14 20 1004.4 1004.4 0.0
23/07:30pm 14.3 10.7 10.5 78 2.0 WNW 20 30 11 16 1004.1 1004.1 0.0
23/07:00pm 13.6 10.3 10.8 83 1.5 WNW 19 26 10 14 1003.8 1003.8 0.0
23/06:30pm 13.9 11.0 11.1 83 1.5 WNW 17 26 9 14 1003.3 1003.3 0.0
23/06:00pm 14.6 11.4 11.2 80 1.8 WNW 19 24 10 13 1003.1 1003.1 0.0
23/05:30pm 15.8 12.3 10.8 72 2.7 WNW 20 32 11 17 1002.8 1002.8 0.0
23/05:00pm 16.6 12.1 10.2 66 3.4 WNW 24 32 13 17 1002.6 1002.6 0.0
23/04:30pm 17.3 12.8 11.3 68 3.3 WNW 26 35 14 19 1002.3 1002.3 0.0
23/04:00pm 17.9 13.2 10.8 63 3.8 WNW 26 35 14 19 1002.1 1002.1 0.0
23/03:30pm 18.3 12.5 10.7 61 4.1 WNW 32 43 17 23 1001.9 1001.9 0.0
23/03:00pm 18.3 12.4 10.4 60 4.3 WNW 32 43 17 23 1001.8 1001.8 0.0
23/02:30pm 18.5 12.8 11.1 62 4.0 WNW 32 43 17 23 1001.5 1001.4 0.0
23/02:00pm 18.6 12.1 10.4 59 4.4 WNW 35 46 19 25 1001.2 1001.1 0.0
23/01:30pm 18.8 11.6 10.4 58 4.5 W 39 54 21 29 1000.8 1000.7 0.0
23/01:00pm 19.4 13.7 11.2 59 4.5 WNW 32 43 17 23 1000.7 1000.6 0.0
23/12:30pm 19.1 13.4 11.7 62 4.1 WNW 33 43 18 23 1000.5 1000.4 0.0
23/12:00pm 19.5 14.0 12.3 63 4.0 WNW 33 44 18 24 1000.1 1000.0 0.0
23/11:30am 19.4 13.7 12.9 66 3.7 WNW 35 46 19 25 999.5 999.4 0.0
23/11:00am 19.0 13.4 13.4 70 3.2 NW 35 52 19 28 999.0 998.9 0.0
23/10:45am 18.5 13.9 13.4 72 2.9 NW 30 48 16 26 998.8 998.7 0.0
23/10:30am 17.9 12.4 13.6 76 2.5 NW 35 50 19 27 998.7 998.6 0.0
23/10:00am 18.4 14.3 12.8 70 3.1 NW 26 35 14 19 997.9 997.8 0.0
23/09:30am 17.7 14.0 12.8 73 2.8 NW 24 32 13 17 997.5 997.4 0.0
23/09:00am 17.3 15.3 13.8 80 2.0 NW 17 20 9 11 997.5 997.4 0.0
23/08:30am 16.5 15.7 14.0 85 1.4 WNW 11 13 6 7 997.2 997.1 0.0
23/08:00am 15.1 14.7 14.0 93 0.6 W 9 11 5 6 996.7 996.6 0.0
23/07:30am 13.1 12.1 12.3 95 0.4 NNW 9 15 5 8 996.9 996.8 0.0
23/07:00am 11.0 11.1 10.1 94 0.5 CALM 0 6 0 3 996.4 996.3 0.0
23/06:30am 10.4 8.6 9.3 93 0.6 SSW 9 11 5 6 996.3 996.2 0.0
23/06:00am 11.2 9.9 10.1 93 0.6 S 7 9 4 5 996.0 996.0 0.0
23/05:30am 11.6 9.2 10.2 91 0.7 SSW 13 20 7 11 995.7 995.7 0.0
23/05:00am 12.8 11.1 11.2 90 0.8 SSW 11 19 6 10 995.8 995.8 0.0
23/04:30am 13.7 11.1 11.9 89 1.0 ESE 17 20 9 11 995.0 995.0 0.0
23/04:00am 13.0 10.3 11.7 92 0.7 SSE 17 26 9 14 995.6 995.6 0.0
23/03:30am 13.2 10.1 12.1 93 0.6 ESE 20 24 11 13 995.2 995.2 0.0
23/03:00am 12.6 10.5 11.3 92 0.7 SSE 13 17 7 9 997.3 997.2 0.0
23/02:30am 13.7 10.8 12.4 92 0.7 S 19 24 10 13 998.1 998.0 0.0
23/02:00am 13.9 9.8 12.6 92 0.7 S 26 35 14 19 999.0 998.9 0.0
23/01:30am 13.6 10.0 12.0 90 0.9 ENE 22 28 12 15 999.2 999.1 0.0
23/01:00am 13.3 11.0 11.7 90 0.9 E 15 24 8 13 999.1 999.0 0.0
23/12:40am 13.3 10.9 11.5 89 1.0 SE 15 20 8 11 999.8 999.7 0.0
23/12:30am 13.1 9.0 11.5 90 0.9 ENE 24 28 13 15 997.8 997.7 0.0
23/12:00am 13.3 10.0 11.7 90 0.9 E 20 26 11 14 999.0 998.9 0.0
 
Date/Time
CST
Temp
°C
App
Temp
°C
Dew
Point
°C
Rel
Hum
%
Delta-T
°C
Wind Press
QNH
hPa
Press
MSL
hPa
Rain since
9am
mm
Dir  Spd
km/h
Gust
km/h
Spd
kts
Gust
kts
22/11:30pm 13.1 10.0 11.7 91 0.8 ESE 19 20 10 11 1000.5 1000.4 0.0
22/11:00pm 12.4 9.8 10.6 89 0.9 SSE 15 17 8 9 1002.3 1002.3 0.0
22/10:30pm 12.9 11.1 10.8 87 1.1 S 11 13 6 7 1003.2 1003.2 0.0
22/10:00pm 13.1 10.9 10.8 86 1.2 SSW 13 17 7 9 1002.9 1002.9 0.0
22/09:30pm 13.1 11.2 10.6 85 1.3 SSW 11 15 6 8 1002.6 1002.6 0.0
22/09:00pm 14.4 12.6 11.0 80 1.8 ENE 11 11 6 6 1001.8 1001.8 0.0
22/08:30pm 14.2 13.1 10.8 80 1.8 ENE 7 9 4 5 1002.2 1002.2 0.0
22/08:00pm 15.2 15.5 11.0 76 2.2 CALM 0 0 0 0 1002.2 1002.2 0.0
22/07:30pm 15.8 15.4 11.2 74 2.5 NE 4 6 2 3 1002.1 1002.1 0.0
22/07:00pm 15.9 16.3 11.3 74 2.5 CALM 0 0 0 0 1002.0 1002.0 0.0
22/06:30pm 19.5 18.2 10.0 54 5.1 SW 7 9 4 5 1002.1 1002.1 0.0
22/06:00pm 20.6 19.9 10.1 51 5.7 WSW 4 7 2 4 1002.2 1002.2 0.0

Other Formats:

Comma delimited format used in spreadsheet applications
http://www.bom.gov.au/fwo/IDS60801/IDS60801.95659.axf

JavaScript Object Notation format (JSON) in row-major order
http://www.bom.gov.au/fwo/IDS60801/IDS60801.95659.json